createdAt,value
2019-01-31T00:00:51.661Z,87.46
2019-01-31T00:01:51.627Z,87.35
2019-01-31T00:02:51.613Z,86.52
2019-01-31T00:03:51.604Z,87.15
2019-01-31T00:04:51.621Z,87.66
2019-01-31T00:05:51.582Z,87.56
2019-01-31T00:06:51.574Z,87.15
2019-01-31T00:07:51.563Z,86.72
2019-01-31T00:08:51.549Z,86.52
2019-01-31T00:09:51.558Z,85.99
2019-01-31T00:10:51.526Z,85.68
2019-01-31T00:11:51.515Z,86.72
2019-01-31T00:12:51.506Z,86.31
2019-01-31T00:13:51.495Z,86.83
2019-01-31T00:14:51.858Z,86.52
2019-01-31T00:15:51.497Z,86.31
2019-01-31T00:16:51.466Z,84.84
2019-01-31T00:17:51.450Z,84.88
2019-01-31T00:18:51.439Z,84.67
2019-01-31T00:19:51.430Z,85.19
2019-01-31T00:20:51.440Z,84.67
2019-01-31T00:21:51.409Z,85.30
2019-01-31T00:22:51.395Z,85.72
2019-01-31T00:23:51.385Z,85.93
2019-01-31T00:24:51.375Z,85.51
2019-01-31T00:25:51.384Z,86.35
2019-01-31T00:26:51.355Z,85.72
2019-01-31T00:27:51.341Z,86.55
2019-01-31T00:28:51.331Z,85.24
2019-01-31T00:29:51.319Z,85.82
2019-01-31T00:30:51.329Z,85.30
2019-01-31T00:31:51.297Z,86.66
2019-01-31T00:32:51.289Z,86.45
2019-01-31T00:33:51.277Z,86.77
2019-01-31T00:34:51.269Z,86.77
2019-01-31T00:35:51.301Z,86.24
2019-01-31T00:36:51.247Z,85.30
2019-01-31T00:37:51.241Z,86.45
2019-01-31T00:38:56.903Z,86.45
2019-01-31T00:39:52.214Z,86.66
2019-01-31T00:40:51.200Z,85.30
2019-01-31T00:41:51.216Z,85.51
2019-01-31T00:42:51.182Z,85.93
2019-01-31T00:43:51.168Z,86.04
2019-01-31T00:44:51.159Z,86.04
2019-01-31T00:45:51.146Z,85.82
2019-01-31T00:46:51.158Z,85.93
2019-01-31T00:47:51.124Z,85.19
2019-01-31T00:48:51.118Z,85.93
2019-01-31T00:49:51.104Z,85.82
2019-01-31T00:50:51.090Z,86.14
2019-01-31T00:51:51.106Z,85.72
2019-01-31T00:52:53.638Z,84.92
2019-01-31T00:53:51.058Z,85.34
2019-01-31T00:54:51.050Z,84.78
2019-01-31T00:55:51.037Z,85.30
2019-01-31T00:56:51.055Z,85.09
2019-01-31T00:57:51.022Z,85.75
2019-01-31T00:58:51.003Z,85.86
2019-01-31T00:59:50.999Z,86.28
2019-01-31T01:00:50.998Z,86.38
2019-01-31T01:01:51.007Z,85.75
2019-01-31T01:02:50.965Z,85.86
2019-01-31T01:03:50.950Z,85.97
2019-01-31T01:04:50.938Z,86.38
2019-01-31T01:05:50.931Z,86.49
2019-01-31T01:06:50.916Z,85.75
2019-01-31T01:07:50.934Z,86.49
2019-01-31T01:08:50.898Z,86.28
2019-01-31T01:09:50.883Z,85.75
2019-01-31T03:10:50.491Z,89.42
2019-01-31T03:11:50.467Z,89.06
2019-01-31T03:12:50.450Z,89.17
2019-01-31T03:13:51.038Z,88.75
2019-01-31T03:14:57.038Z,88.64
2019-01-31T03:15:53.026Z,88.01
2019-01-31T03:16:50.423Z,88.64
2019-01-31T03:17:50.443Z,87.59
2019-01-31T03:18:50.649Z,87.38
2019-01-31T03:19:50.395Z,87.17
2019-01-31T03:20:50.429Z,86.86
2019-01-31T03:21:50.369Z,87.42
2019-01-31T03:22:51.055Z,87.63
2019-01-31T03:23:50.387Z,87.59
2019-01-31T03:24:50.357Z,87.84
2019-01-31T03:25:50.309Z,87.59
2019-01-31T03:26:50.338Z,87.52
2019-01-31T03:27:50.311Z,86.96
2019-01-31T03:28:50.283Z,86.44
2019-01-31T03:29:50.292Z,86.69
2019-01-31T03:30:50.261Z,87.21
2019-01-31T03:31:50.252Z,87.28
2019-01-31T03:32:50.239Z,87.32
2019-01-31T03:33:50.222Z,87.11
2019-01-31T03:34:50.250Z,87.11
2019-01-31T03:35:50.201Z,87.11
2019-01-31T03:36:50.190Z,87.00
2019-01-31T03:37:50.185Z,86.90
2019-01-31T03:38:50.175Z,87.46
2019-01-31T03:39:50.185Z,87.84
2019-01-31T03:40:51.031Z,87.11
2019-01-31T03:41:50.166Z,87.57
2019-01-31T03:43:12.204Z,87.99
2019-01-31T03:43:50.122Z,87.95
2019-01-31T03:44:50.193Z,87.99
2019-01-31T03:45:52.049Z,88.72
2019-01-31T03:46:50.142Z,88.51
2019-01-31T03:47:50.087Z,88.51
2019-01-31T03:48:50.062Z,89.04
2019-01-31T03:49:50.160Z,88.82
2019-01-31T03:50:51.038Z,89.04
2019-01-31T03:51:50.047Z,89.25
2019-01-31T03:52:50.080Z,88.82
2019-01-31T03:53:50.069Z,89.14
2019-01-31T03:54:51.620Z,89.04
2019-01-31T03:55:50.021Z,89.35
2019-01-31T03:56:49.999Z,88.87
2019-01-31T03:57:50.072Z,88.30
2019-01-31T03:58:50.166Z,88.76
2019-01-31T03:59:50.309Z,89.04
2019-01-31T04:00:50.262Z,88.76
2019-01-31T04:01:50.189Z,89.29
2019-01-31T04:02:50.102Z,88.87
2019-01-31T04:03:50.210Z,88.97
2019-01-31T04:04:51.833Z,89.60
2019-01-31T04:05:50.136Z,89.60
2019-01-31T04:06:50.207Z,90.02
2019-01-31T04:07:50.107Z,89.92
2019-01-31T04:08:49.915Z,89.92
2019-01-31T04:09:50.035Z,89.39
2019-01-31T04:10:50.071Z,89.39
2019-01-31T04:11:49.911Z,89.29
2019-01-31T04:12:49.977Z,89.92
2019-01-31T04:13:49.882Z,89.50
2019-01-31T04:14:49.937Z,89.71
2019-01-31T04:15:49.885Z,89.81
2019-01-31T04:16:49.814Z,90.02
2019-01-31T04:17:49.786Z,89.50
2019-01-31T04:18:49.799Z,89.50
2019-01-31T04:19:49.867Z,89.04
2019-01-31T04:20:51.162Z,89.87
2019-01-31T04:21:49.906Z,89.35
2019-01-31T04:22:49.931Z,89.60
2019-01-31T04:23:49.826Z,90.09
2019-01-31T04:24:49.726Z,89.87
2019-01-31T04:25:49.912Z,89.14
2019-01-31T04:26:49.741Z,89.77
2019-01-31T04:27:49.820Z,89.77
2019-01-31T04:28:49.813Z,89.71
2019-01-31T04:29:49.700Z,89.71
2019-01-31T04:30:49.637Z,90.12
2019-01-31T04:31:49.609Z,90.55
2019-01-31T04:32:49.593Z,90.44
2019-01-31T04:33:49.580Z,90.44
2019-01-31T04:34:49.573Z,90.44
2019-01-31T04:35:49.586Z,89.92
2019-01-31T04:36:49.573Z,89.92
2019-01-31T04:37:49.542Z,89.86
2019-01-31T04:38:49.556Z,89.60
2019-01-31T04:39:49.528Z,90.44
2019-01-31T04:40:49.537Z,90.23
2019-01-31T04:41:49.521Z,89.92
2019-01-31T04:42:49.606Z,90.66
2019-01-31T04:43:49.591Z,91.39
2019-01-31T04:44:49.608Z,90.34
2019-01-31T04:45:50.263Z,90.23
2019-01-31T04:46:49.485Z,90.44
2019-01-31T04:47:49.529Z,90.76
2019-01-31T04:48:49.536Z,90.55
2019-01-31T04:49:49.566Z,90.76
2019-01-31T04:50:49.435Z,90.44
2019-01-31T04:51:49.444Z,90.61
2019-01-31T04:52:49.557Z,90.61
2019-01-31T04:53:49.578Z,90.40
2019-01-31T04:54:49.434Z,90.51
2019-01-31T04:55:49.441Z,90.51
2019-01-31T04:56:49.424Z,90.51
2019-01-31T04:57:49.347Z,89.87
2019-01-31T04:58:49.429Z,89.87
2019-01-31T04:59:49.310Z,89.67
2019-01-31T05:00:49.289Z,89.77
2019-01-31T05:01:49.281Z,89.98
2019-01-31T05:02:49.291Z,90.51
2019-01-31T05:03:49.260Z,90.57
2019-01-31T05:04:49.243Z,90.36
2019-01-31T05:05:49.232Z,90.57
2019-01-31T05:06:49.225Z,89.94
2019-01-31T05:07:49.248Z,90.30
2019-01-31T05:08:49.207Z,90.47
2019-01-31T05:09:49.193Z,90.57
2019-01-31T05:11:36.281Z,91.35
2019-01-31T05:11:49.164Z,90.67
2019-01-31T05:12:58.741Z,90.15
2019-01-31T05:13:58.628Z,90.89
2019-01-31T05:16:16.949Z,90.25
2019-01-31T05:17:16.926Z,90.99
2019-01-31T05:18:16.933Z,91.24
2019-01-31T05:19:16.900Z,90.25
2019-01-31T05:20:16.896Z,90.57
2019-01-31T05:21:16.890Z,90.67
2019-01-31T05:22:16.872Z,90.25
2019-01-31T05:23:16.885Z,90.47
2019-01-31T05:24:16.850Z,90.57
2019-01-31T05:25:16.852Z,90.67
2019-01-31T05:26:16.832Z,91.20
2019-01-31T05:27:16.828Z,90.82
2019-01-31T05:28:16.829Z,90.99
2019-01-31T05:29:16.793Z,91.41
2019-01-31T05:30:16.784Z,91.41
2019-01-31T05:31:16.771Z,91.87
2019-01-31T05:32:16.762Z,91.72
2019-01-31T05:33:16.776Z,91.87
2019-01-31T05:34:16.743Z,91.20
2019-01-31T05:35:16.727Z,92.29
2019-01-31T05:36:16.715Z,92.25
2019-01-31T05:37:16.705Z,92.35
2019-01-31T05:38:17.577Z,92.57
2019-01-31T05:39:16.686Z,92.88
2019-01-31T05:40:16.683Z,92.57
2019-01-31T05:41:16.662Z,92.35
2019-01-31T05:42:16.652Z,92.67
2019-01-31T05:43:16.665Z,92.46
2019-01-31T05:44:16.629Z,92.57
2019-01-31T05:45:16.618Z,92.57
2019-01-31T05:46:18.424Z,92.57
2019-01-31T05:47:16.598Z,92.99
2019-01-31T05:48:16.610Z,93.09
2019-01-31T05:49:16.575Z,93.09
2019-01-31T05:50:16.563Z,93.40
2019-01-31T05:51:16.554Z,93.51
2019-01-31T05:52:16.543Z,93.72
2019-01-31T05:53:16.557Z,93.72
2019-01-31T05:54:16.523Z,93.72
2019-01-31T05:55:16.531Z,93.76
2019-01-31T05:56:16.498Z,93.93
2019-01-31T05:57:16.486Z,94.04
2019-01-31T05:58:16.507Z,93.82
2019-01-31T05:59:16.468Z,94.24
2019-01-31T06:00:16.459Z,94.14
2019-01-31T06:01:16.446Z,94.56
2019-01-31T06:02:16.435Z,94.35
2019-01-31T06:03:16.422Z,94.45
2019-01-31T06:04:16.436Z,94.56
2019-01-31T06:05:16.404Z,94.56
2019-01-31T06:06:16.394Z,94.24
2019-01-31T06:07:16.378Z,94.24
2019-01-31T06:08:16.372Z,94.24
2019-01-31T06:09:16.378Z,94.24
2019-01-31T06:10:16.351Z,94.24
2019-01-31T06:11:16.335Z,94.10
2019-01-31T06:12:16.327Z,94.62
2019-01-31T06:13:16.316Z,94.41
2019-01-31T06:14:16.325Z,94.10
2019-01-31T06:15:16.294Z,94.24
2019-01-31T06:16:16.282Z,94.41
2019-01-31T06:17:16.270Z,94.41
2019-01-31T06:18:16.285Z,94.31
2019-01-31T06:19:16.256Z,94.62
2019-01-31T06:20:16.260Z,94.10
2019-01-31T06:21:16.227Z,94.41
2019-01-31T06:22:16.219Z,94.62
2019-01-31T06:23:16.212Z,94.62
2019-01-31T06:24:16.197Z,94.62
2019-01-31T06:25:16.206Z,94.73
2019-01-31T06:26:16.179Z,94.93
2019-01-31T06:27:16.167Z,94.73
2019-01-31T06:28:16.202Z,94.73
2019-01-31T06:29:16.145Z,95.00
2019-01-31T06:30:16.155Z,94.79
2019-01-31T06:31:16.205Z,95.31
2019-01-31T06:32:16.109Z,95.21
2019-01-31T06:33:16.103Z,95.15
2019-01-31T06:34:16.153Z,95.31
2019-01-31T06:35:16.106Z,95.36
2019-01-31T06:36:16.181Z,95.36
2019-01-31T06:37:16.068Z,95.31
2019-01-31T06:38:16.051Z,95.94
2019-01-31T06:39:16.092Z,95.84
2019-01-31T06:40:23.642Z,95.73
2019-01-31T06:41:18.675Z,96.51
2019-01-31T06:42:16.103Z,96.47
2019-01-31T06:43:22.714Z,96.51
2019-01-31T06:44:16.039Z,96.57
2019-01-31T06:45:16.027Z,95.94
2019-01-31T06:46:16.062Z,96.25
2019-01-31T07:21:17.125Z,96.57
2019-01-31T07:22:17.083Z,96.47
2019-01-31T07:23:17.108Z,97.09
2019-01-31T07:24:17.070Z,96.99
2019-01-31T07:25:17.058Z,96.57
2019-01-31T07:26:54.107Z,97.20
2019-01-31T08:53:57.226Z,96.55
2019-01-31T08:54:57.201Z,96.33
2019-01-31T08:55:58.037Z,96.86
2019-01-31T08:56:57.164Z,96.44
2019-01-31T08:57:57.158Z,96.65
2019-01-31T08:58:57.143Z,96.86
2019-01-31T08:59:57.130Z,96.75
2019-01-31T09:00:57.142Z,97.17
2019-01-31T09:01:57.109Z,96.55
2019-01-31T09:02:57.095Z,96.12
2019-01-31T09:03:57.093Z,95.81
2019-01-31T09:23:01.011Z,96.08
2019-01-31T09:24:00.981Z,96.12
2019-01-31T09:25:00.968Z,96.44
2019-01-31T09:26:00.956Z,96.33
2019-01-31T09:27:00.967Z,95.81
2019-01-31T09:28:00.935Z,96.44
2019-01-31T09:29:00.990Z,96.23
2019-01-31T09:30:00.957Z,96.02
2019-01-31T09:31:00.940Z,95.87
2019-01-31T09:32:00.924Z,96.19
2019-01-31T09:33:00.881Z,95.98
2019-01-31T09:34:00.873Z,96.08
2019-01-31T09:35:00.861Z,96.29
2019-01-31T09:36:00.848Z,95.66
2019-01-31T09:37:00.838Z,95.72
2019-01-31T09:38:00.917Z,96.08
2019-01-31T09:39:00.815Z,96.39
2019-01-31T09:40:00.805Z,95.56
2019-01-31T09:41:00.794Z,95.66
2019-01-31T09:42:00.916Z,95.51
2019-01-31T09:44:52.241Z,95.93
2019-01-31T09:45:52.188Z,96.14
2019-01-31T09:46:52.167Z,95.87
2019-01-31T09:47:52.187Z,96.35
2019-01-31T09:48:52.151Z,96.14
2019-01-31T09:49:52.130Z,95.93
2019-01-31T09:50:52.116Z,96.04
2019-01-31T09:51:52.108Z,96.39
2019-01-31T09:52:54.511Z,95.76
2019-01-31T09:53:52.084Z,95.25
2019-01-31T09:54:52.075Z,94.99
2019-01-31T09:55:52.063Z,95.62
2019-01-31T09:56:52.050Z,94.99
2019-01-31T09:57:52.065Z,95.31
2019-01-31T09:58:52.032Z,95.20
2019-01-31T09:59:52.068Z,95.20
2019-01-31T10:00:52.018Z,94.99
2019-01-31T10:01:52.583Z,94.68
2019-01-31T10:02:52.011Z,94.46
2019-01-31T10:03:51.977Z,94.15
2019-01-31T10:04:51.966Z,94.68
2019-01-31T10:05:51.959Z,94.57
2019-01-31T10:06:51.944Z,94.36
2019-01-31T10:07:51.963Z,94.57
2019-01-31T10:08:51.923Z,94.89
2019-01-31T10:09:51.911Z,94.78
2019-01-31T10:10:51.927Z,94.68
2019-01-31T10:11:51.908Z,94.74
2019-01-31T10:12:51.879Z,94.36
2019-01-31T10:13:51.922Z,94.57
2019-01-31T10:14:51.881Z,94.68
2019-01-31T10:15:51.928Z,94.53
2019-01-31T10:16:51.839Z,94.21
2019-01-31T10:17:51.824Z,94.21
2019-01-31T10:18:51.982Z,94.32
2019-01-31T10:19:51.815Z,94.01
2019-01-31T10:20:51.840Z,94.01
2019-01-31T10:21:51.873Z,94.11
2019-01-31T10:22:51.813Z,94.11
2019-01-31T10:23:51.874Z,94.17
2019-01-31T10:24:54.447Z,93.90
2019-01-31T10:25:51.739Z,93.76
2019-01-31T10:26:51.730Z,93.86
2019-01-31T10:27:51.719Z,94.11
2019-01-31T10:28:51.736Z,93.86
2019-01-31T10:29:53.032Z,93.70
2019-01-31T10:30:51.689Z,93.80
2019-01-31T10:31:51.676Z,93.76
2019-01-31T10:33:00.836Z,93.86
2019-01-31T10:33:51.652Z,93.86
2019-01-31T10:34:51.664Z,93.86
2019-01-31T10:35:51.633Z,93.54
2019-01-31T10:36:51.621Z,93.65
2019-01-31T10:37:51.610Z,93.65
2019-01-31T10:58:45.623Z,91.94
2019-01-31T10:59:45.588Z,92.25
2019-01-31T11:00:45.694Z,92.77
2019-01-31T11:01:45.593Z,92.77
2019-01-31T11:02:47.881Z,92.66
2019-01-31T11:03:45.546Z,92.46
2019-01-31T11:04:45.534Z,92.14
2019-01-31T11:05:45.612Z,92.71
2019-01-31T12:17:58.525Z,91.79
2019-01-31T12:18:58.487Z,91.58
2019-01-31T12:19:58.502Z,91.89
2019-01-31T12:20:58.469Z,91.64
2019-01-31T12:21:58.453Z,91.85
2019-01-31T12:22:58.443Z,91.33
2019-01-31T12:23:58.433Z,92.06
2019-01-31T12:24:58.446Z,90.81
2019-01-31T12:25:58.430Z,90.70
2019-01-31T12:26:58.405Z,90.18
2019-01-31T12:27:58.392Z,90.18
2019-01-31T12:28:58.382Z,90.60
2019-01-31T12:29:58.396Z,90.39
2019-01-31T12:30:58.361Z,90.18
2019-01-31T12:31:58.348Z,89.24
2019-01-31T12:32:58.340Z,89.14
2019-01-31T12:33:58.327Z,89.14
2019-01-31T12:34:58.332Z,89.03
2019-01-31T12:35:58.309Z,90.08
2019-01-31T12:36:58.296Z,88.62
2019-01-31T12:37:58.283Z,88.62
2019-01-31T12:38:58.271Z,89.14
2019-01-31T12:39:58.295Z,89.24
2019-01-31T12:40:58.248Z,89.76
2019-01-31T12:41:58.238Z,90.50
2019-01-31T12:42:58.227Z,90.39
2019-01-31T12:43:58.220Z,90.08
2019-01-31T12:44:58.232Z,90.81
2019-01-31T12:45:58.203Z,90.08
2019-01-31T12:46:58.189Z,89.66
2019-01-31T12:47:58.178Z,89.56
2019-01-31T12:48:58.162Z,89.87
2019-01-31T12:49:58.177Z,90.60
2019-01-31T12:50:58.138Z,89.93
2019-01-31T12:51:58.131Z,89.72
2019-01-31T12:52:58.118Z,89.83
2019-01-31T12:53:58.106Z,90.66
2019-01-31T12:54:58.095Z,89.76
2019-01-31T12:55:59.066Z,90.18
2019-01-31T12:56:58.093Z,90.87
2019-01-31T12:57:58.064Z,90.08
2019-01-31T12:58:58.052Z,90.35
2019-01-31T12:59:58.043Z,90.77
2019-01-31T13:00:58.208Z,90.03
2019-01-31T13:01:58.019Z,89.14
2019-01-31T13:02:58.009Z,88.57
2019-01-31T13:03:58.000Z,89.66
2019-01-31T13:04:57.987Z,89.20
2019-01-31T13:05:57.996Z,89.31
2019-01-31T13:06:57.964Z,89.20
2019-01-31T13:07:57.950Z,88.99
2019-01-31T13:08:57.939Z,89.51
2019-01-31T13:09:57.928Z,89.03
2019-01-31T13:10:57.937Z,89.03
2019-01-31T13:11:57.907Z,89.20
2019-01-31T13:12:57.898Z,89.20
2019-01-31T13:13:57.883Z,89.87
2019-01-31T13:14:57.929Z,89.66
2019-01-31T13:15:59.579Z,89.20
2019-01-31T13:16:57.856Z,88.93
2019-01-31T13:17:57.865Z,89.41
2019-01-31T13:18:57.832Z,89.20
2019-01-31T13:19:58.169Z,90.81
2019-01-31T13:20:57.858Z,90.14
2019-01-31T13:21:57.832Z,90.18
2019-01-31T13:22:57.804Z,90.18
2019-01-31T13:23:57.782Z,89.24
2019-01-31T13:24:57.767Z,88.68
2019-01-31T13:25:57.750Z,88.57
2019-01-31T13:26:57.777Z,89.20
2019-01-31T13:27:57.749Z,88.89
2019-01-31T13:28:57.717Z,88.89
2019-01-31T13:29:57.709Z,89.14
2019-01-31T13:30:57.697Z,89.76
2019-01-31T13:31:57.705Z,88.57
2019-01-31T13:32:57.673Z,88.57
2019-01-31T13:33:57.664Z,88.57
2019-01-31T13:34:57.652Z,88.62
2019-01-31T13:35:57.643Z,89.14
2019-01-31T13:36:57.658Z,88.99
2019-01-31T13:37:57.617Z,89.10
2019-01-31T13:38:57.607Z,89.10
2019-01-31T13:39:57.604Z,88.78
2019-01-31T13:40:57.588Z,89.10
2019-01-31T13:41:57.598Z,89.62
2019-01-31T13:42:57.564Z,89.31
2019-01-31T13:43:58.033Z,88.99
2019-01-31T13:44:57.551Z,88.68
2019-01-31T13:45:57.535Z,89.41
2019-01-31T13:46:58.079Z,88.78
2019-01-31T13:47:57.513Z,88.89
2019-01-31T13:48:57.511Z,88.57
2019-01-31T13:49:57.491Z,88.57
2019-01-31T13:50:57.480Z,88.47
2019-01-31T13:51:57.493Z,88.47
2019-01-31T13:52:57.461Z,88.37
2019-01-31T13:53:57.447Z,88.57
2019-01-31T13:54:57.437Z,88.16
2019-01-31T13:55:57.442Z,88.16
2019-01-31T13:56:57.447Z,88.37
2019-01-31T13:57:57.403Z,88.68
2019-01-31T13:58:57.399Z,88.26
2019-01-31T13:59:57.384Z,87.74
2019-01-31T14:00:57.376Z,88.16
2019-01-31T14:01:57.365Z,88.16
2019-01-31T14:02:57.380Z,88.68
2019-01-31T14:03:57.343Z,88.32
2019-01-31T14:04:57.327Z,87.22
2019-01-31T14:05:57.322Z,87.53
2019-01-31T14:06:57.308Z,87.43
2019-01-31T14:07:57.317Z,87.53
2019-01-31T14:08:57.283Z,87.43
2019-01-31T14:09:57.276Z,87.32
2019-01-31T14:10:57.259Z,87.01
2019-01-31T14:11:57.263Z,87.43
2019-01-31T14:12:57.266Z,87.43
2019-01-31T14:14:08.493Z,87.32
2019-01-31T14:14:58.226Z,87.01
2019-01-31T14:15:57.211Z,87.32
2019-01-31T14:16:57.194Z,87.22
2019-01-31T14:17:57.222Z,87.22
2019-01-31T14:18:57.182Z,87.12
2019-01-31T14:19:57.172Z,87.43
2019-01-31T14:20:57.161Z,87.63
2019-01-31T14:21:57.139Z,86.80
2019-01-31T14:22:57.130Z,86.59
2019-01-31T14:23:57.145Z,86.18
2019-01-31T14:24:57.115Z,86.59
2019-01-31T14:25:57.094Z,86.91
2019-01-31T14:26:57.089Z,86.69
2019-01-31T14:27:57.073Z,87.32
2019-01-31T14:28:57.093Z,87.22
2019-01-31T14:29:57.059Z,86.59
2019-01-31T14:30:57.042Z,87.43
2019-01-31T14:31:57.040Z,86.80
2019-01-31T14:32:57.018Z,86.91
2019-01-31T14:33:57.056Z,86.59
2019-01-31T14:34:56.995Z,86.59
2019-01-31T14:35:57.957Z,86.28
2019-01-31T14:36:56.974Z,86.69
2019-01-31T14:37:56.966Z,87.01
2019-01-31T14:38:56.951Z,87.12
2019-01-31T14:39:56.963Z,87.12
2019-01-31T14:40:56.933Z,87.15
2019-01-31T14:41:56.919Z,86.53
2019-01-31T14:42:56.916Z,86.94
2019-01-31T14:43:56.898Z,87.26
2019-01-31T14:44:56.915Z,87.47
2019-01-31T14:45:56.878Z,87.57
2019-01-31T14:46:56.873Z,87.15
2019-01-31T14:47:56.852Z,87.47
2019-01-31T14:48:56.846Z,86.84
2019-01-31T14:49:56.861Z,87.15
2019-01-31T14:50:56.821Z,86.99
2019-01-31T14:51:56.808Z,86.99
2019-01-31T14:52:57.079Z,87.30
2019-01-31T14:53:56.787Z,87.61
2019-01-31T14:54:56.802Z,87.51
2019-01-31T14:55:56.765Z,87.40
2019-01-31T14:56:56.759Z,87.61
2019-01-31T14:57:57.547Z,87.30
2019-01-31T14:58:56.733Z,88.76
2019-01-31T14:59:56.746Z,88.76
2019-01-31T15:00:56.715Z,88.76
2019-01-31T15:01:56.699Z,88.76
2019-01-31T15:02:56.689Z,88.65
2019-01-31T15:03:56.684Z,88.90
2019-01-31T15:04:56.695Z,88.90
2019-01-31T15:05:56.701Z,89.49
2019-01-31T15:06:56.646Z,89.64
2019-01-31T15:07:56.649Z,88.80
2019-01-31T15:08:56.624Z,89.43
2019-01-31T15:09:56.660Z,89.11
2019-01-31T15:10:56.604Z,89.32
2019-01-31T15:11:56.593Z,89.32
2019-01-31T15:12:56.579Z,89.32
2019-01-31T15:13:56.568Z,89.22
2019-01-31T15:14:56.582Z,89.43
2019-01-31T15:15:56.545Z,89.32
2019-01-31T15:16:56.580Z,89.22
2019-01-31T15:17:56.532Z,89.15
2019-01-31T15:18:56.512Z,89.58
2019-01-31T15:19:56.559Z,90.20
2019-01-31T15:20:56.497Z,90.09
2019-01-31T15:21:56.481Z,89.89
2019-01-31T15:22:56.482Z,90.52
2019-01-31T15:23:59.354Z,90.83
2019-01-31T15:24:56.446Z,90.41
2019-01-31T15:25:56.459Z,90.41
2019-01-31T15:26:56.452Z,90.83
2019-01-31T15:27:56.415Z,90.62
2019-01-31T15:28:56.405Z,91.03
2019-01-31T15:29:56.412Z,91.18
2019-01-31T15:30:56.416Z,90.87
2019-01-31T15:31:56.393Z,90.66
2019-01-31T15:32:56.361Z,90.93
2019-01-31T15:33:56.354Z,90.45
2019-01-31T15:34:56.338Z,90.66
2019-01-31T15:35:56.325Z,91.03
2019-01-31T15:36:56.348Z,90.97
2019-01-31T15:37:56.304Z,90.66
2019-01-31T15:38:56.296Z,90.97
2019-01-31T15:39:56.294Z,91.18
2019-01-31T15:40:56.275Z,91.50
2019-01-31T15:41:56.285Z,91.50
2019-01-31T15:42:56.250Z,91.43
2019-01-31T15:43:56.293Z,91.18
2019-01-31T15:44:56.230Z,91.91
2019-01-31T15:45:56.219Z,91.81
2019-01-31T15:46:56.281Z,91.43
2019-01-31T15:47:56.195Z,92.02
2019-01-31T15:48:56.186Z,91.02
2019-01-31T15:49:56.718Z,91.33
2019-01-31T15:50:56.172Z,91.75
2019-01-31T15:51:56.156Z,91.96
2019-01-31T15:52:56.176Z,91.54
2019-01-31T15:53:56.141Z,91.96
2019-01-31T15:54:56.161Z,92.06
2019-01-31T15:55:56.116Z,92.06
2019-01-31T15:56:56.114Z,92.38
2019-01-31T15:57:56.193Z,92.16
2019-01-31T15:58:56.083Z,92.38
2019-01-31T15:59:56.067Z,91.96
2019-01-31T16:00:56.058Z,92.48
2019-01-31T16:01:56.046Z,92.63
2019-01-31T16:02:56.056Z,92.48
2019-01-31T16:03:56.031Z,93.26
2019-01-31T16:04:56.019Z,93.26
2019-01-31T16:05:55.999Z,93.04
2019-01-31T16:06:55.996Z,93.15
2019-01-31T16:07:56.008Z,93.26
2019-01-31T16:08:55.983Z,93.46
2019-01-31T16:09:55.974Z,93.67
2019-01-31T16:10:56.000Z,93.57
2019-01-31T16:11:55.981Z,93.88
2019-01-31T16:12:55.981Z,93.88
2019-01-31T16:13:55.917Z,93.78
2019-01-31T16:14:55.929Z,93.78
2019-01-31T16:15:55.890Z,93.78
2019-01-31T16:16:55.880Z,93.99
2019-01-31T16:17:55.896Z,93.99
2019-01-31T16:18:55.858Z,94.34
2019-01-31T16:19:55.846Z,93.99
2019-01-31T16:20:55.842Z,94.30
2019-01-31T16:21:55.828Z,94.13
2019-01-31T16:22:55.849Z,93.88
2019-01-31T16:23:55.810Z,93.67
2019-01-31T16:24:55.795Z,93.57
2019-01-31T16:25:55.783Z,93.46
2019-01-31T16:26:55.825Z,93.36
2019-01-31T16:27:55.786Z,92.94
2019-01-31T16:28:55.749Z,92.52
2019-01-31T16:29:55.745Z,92.52
2019-01-31T16:30:55.733Z,92.63
2019-01-31T16:31:55.723Z,92.73
2019-01-31T16:32:55.719Z,92.52
2019-01-31T16:33:55.737Z,92.52
2019-01-31T16:34:55.695Z,92.63
2019-01-31T16:35:55.721Z,92.52
2019-01-31T16:36:55.666Z,92.42
2019-01-31T16:37:55.712Z,92.00
2019-01-31T16:38:55.647Z,92.00
2019-01-31T16:39:55.657Z,93.36
2019-01-31T16:40:55.630Z,93.04
2019-01-31T16:41:55.611Z,92.31
2019-01-31T16:42:55.598Z,92.73
2019-01-31T16:43:55.585Z,93.15
2019-01-31T16:45:06.159Z,93.15
2019-01-31T16:45:56.567Z,93.26
2019-01-31T16:46:55.559Z,93.46
2019-01-31T16:47:55.542Z,93.42
2019-01-31T16:48:55.536Z,93.46
2019-01-31T16:49:55.549Z,93.67
2019-01-31T16:50:55.517Z,93.57
2019-01-31T16:51:55.507Z,93.99
2019-01-31T16:52:55.493Z,93.88
2019-01-31T16:53:55.481Z,93.57
2019-01-31T16:54:55.489Z,93.67
2019-01-31T16:55:55.460Z,93.67
2019-01-31T16:56:55.446Z,93.88
2019-01-31T16:57:55.434Z,93.78
2019-01-31T16:58:55.428Z,93.57
2019-01-31T16:59:55.434Z,93.78
2019-01-31T17:00:55.409Z,93.78
2019-01-31T17:01:55.389Z,93.82
2019-01-31T17:02:55.382Z,93.82
2019-01-31T17:03:55.367Z,93.71
2019-01-31T17:04:55.407Z,93.71
2019-01-31T17:05:55.349Z,93.71
2019-01-31T17:06:55.342Z,93.82
2019-01-31T17:07:55.370Z,93.82
2019-01-31T17:08:55.314Z,93.61
2019-01-31T17:09:55.305Z,93.61
2019-01-31T17:10:55.315Z,93.71
2019-01-31T17:11:55.279Z,93.71
2019-01-31T17:12:55.272Z,93.76
2019-01-31T17:13:55.265Z,94.07
2019-01-31T17:14:55.340Z,94.07
2019-01-31T17:15:55.267Z,93.87
2019-01-31T17:16:55.288Z,94.07
2019-01-31T17:17:55.219Z,94.18
2019-01-31T17:18:55.213Z,94.38
2019-01-31T17:19:55.198Z,94.38
2019-01-31T17:20:55.209Z,94.07
2019-01-31T17:21:55.173Z,94.07
2019-01-31T17:22:55.162Z,93.87
2019-01-31T17:23:55.151Z,93.65
2019-01-31T17:24:55.139Z,93.97
2019-01-31T17:25:55.159Z,93.87
2019-01-31T17:26:55.125Z,93.65
2019-01-31T17:27:55.105Z,93.55
2019-01-31T17:28:55.097Z,93.55
2019-01-31T17:29:55.083Z,93.55
2019-01-31T17:30:55.076Z,93.44
2019-01-31T17:31:55.097Z,93.24
2019-01-31T17:32:55.060Z,92.92
2019-01-31T17:33:55.041Z,93.24
2019-01-31T17:34:55.033Z,92.82
2019-01-31T17:35:55.018Z,93.24
2019-01-31T17:36:56.609Z,92.92
2019-01-31T17:37:54.999Z,93.24
2019-01-31T17:38:55.068Z,93.13
2019-01-31T17:39:54.986Z,93.02
2019-01-31T17:40:54.967Z,93.34
2019-01-31T17:41:54.967Z,93.55
2019-01-31T17:42:54.967Z,93.44
2019-01-31T17:43:54.936Z,93.65
2019-01-31T17:44:54.935Z,93.65
2019-01-31T17:45:54.913Z,93.76
2019-01-31T17:46:54.900Z,93.34
2019-01-31T17:47:54.913Z,93.02
2019-01-31T17:48:54.996Z,92.82
2019-01-31T17:49:54.869Z,92.61
2019-01-31T17:50:54.858Z,92.40
2019-01-31T17:51:54.847Z,92.14
2019-01-31T17:52:54.864Z,92.25
2019-01-31T17:53:54.870Z,92.25
2019-01-31T17:54:56.121Z,91.83
2019-01-31T17:55:54.809Z,91.20
2019-01-31T17:56:54.790Z,91.77
2019-01-31T17:57:54.804Z,91.41
2019-01-31T17:58:54.769Z,91.31
2019-01-31T17:59:54.757Z,91.09
2019-01-31T18:00:54.744Z,91.62
2019-01-31T18:01:55.424Z,91.62
2019-01-31T18:02:54.741Z,91.72
2019-01-31T18:03:54.712Z,91.94
2019-01-31T18:04:54.711Z,91.20
2019-01-31T18:05:54.764Z,91.87
2019-01-31T18:06:54.709Z,92.14
2019-01-31T18:07:54.696Z,92.67
2019-01-31T18:08:54.678Z,92.98
2019-01-31T18:09:54.778Z,93.30
2019-01-31T18:10:54.637Z,93.51
2019-01-31T18:11:54.629Z,93.71
2019-01-31T18:12:54.661Z,93.71
2019-01-31T18:13:54.615Z,93.71
2019-01-31T18:14:54.595Z,93.71
2019-01-31T18:15:54.583Z,93.30
2019-01-31T18:16:54.571Z,93.19
2019-01-31T18:17:54.562Z,93.40
2019-01-31T18:18:54.572Z,93.30
2019-01-31T18:19:54.539Z,93.19
2019-01-31T18:20:54.533Z,93.36
2019-01-31T18:21:54.522Z,93.26
2019-01-31T18:22:54.517Z,93.26
2019-01-31T18:23:54.562Z,93.15
2019-01-31T18:24:54.488Z,93.15
2019-01-31T18:25:54.494Z,92.94
2019-01-31T18:26:54.467Z,92.94
2019-01-31T18:27:54.463Z,92.73
2019-01-31T18:28:54.472Z,91.89
2019-01-31T18:29:54.439Z,92.42
2019-01-31T18:30:54.426Z,92.52
2019-01-31T18:31:54.429Z,92.83
2019-01-31T18:32:54.400Z,92.73
2019-01-31T18:33:54.419Z,92.21
2019-01-31T18:34:54.380Z,92.42
2019-01-31T18:35:54.369Z,92.10
2019-01-31T18:36:54.359Z,91.89
2019-01-31T18:37:54.345Z,92.00
2019-01-31T18:38:57.527Z,92.00
2019-01-31T18:39:54.322Z,92.00
2019-01-31T18:40:54.325Z,91.72
2019-01-31T18:41:54.317Z,91.58
2019-01-31T18:42:54.338Z,91.58
2019-01-31T18:43:54.358Z,91.06
2019-01-31T18:44:54.275Z,91.06
2019-01-31T18:45:54.300Z,90.95